Time;durP1;ratioP1;P1;durP2;ratioP2;P2;SDS_P1;SDS_P2;PMS_P1;PMS_P2;Temp;Humidity;BMP_temperature;BMP_pressure;BME280_temperature;BME280_humidity;BME280_pressure;Samples;Min_cycle;Max_cycle;Signal;HPM_P1;HPM_P2
2021/08/10 00:01:03;;;;;;;5.88;2.92;;;;;;;;;;4969140;28;20041;-67
2021/08/10 00:03:28;;;;;;;4.80;3.03;;;;;;;;;;4969920;28;20367;-67
2021/08/10 00:05:53;;;;;;;5.35;2.78;;;;;;;;;;4972202;28;20041;-66
2021/08/10 00:08:20;;;;;;;4.72;2.90;;;;;;;;;;4973274;28;20038;-68
2021/08/10 00:10:46;;;;;;;4.20;2.42;;;;;;;;;;4971434;28;20030;-67
2021/08/10 00:13:11;;;;;;;4.30;2.95;;;;;;;;;;4972952;28;20031;-67
2021/08/10 00:15:37;;;;;;;4.25;2.67;;;;;;;;;;4973108;28;20027;-67
2021/08/10 00:18:02;;;;;;;4.20;2.75;;;;;;;;;;4973069;28;20031;-67
2021/08/10 00:20:28;;;;;;;4.32;2.80;;;;;;;;;;4973051;28;20031;-67
2021/08/10 00:22:53;;;;;;;5.97;2.80;;;;;;;;;;4972960;28;20129;-67
2021/08/10 00:25:18;;;;;;;5.85;3.20;;;;;;;;;;4972993;28;20620;-68
2021/08/10 00:27:44;;;;;;;4.32;2.53;;;;;;;;;;4973034;28;20485;-67
2021/08/10 00:30:10;;;;;;;5.47;2.95;;;;;;;;;;4966448;28;20025;-67
2021/08/10 00:32:35;;;;;;;4.55;2.85;;;;;;;;;;4972850;28;20022;-68
2021/08/10 00:35:00;;;;;;;5.25;2.80;;;;;;;;;;4972722;28;20034;-67
2021/08/10 00:37:26;;;;;;;5.43;3.13;;;;;;;;;;4972714;28;20026;-66
2021/08/10 00:39:51;;;;;;;5.15;2.53;;;;;;;;;;4972658;28;20445;-67
2021/08/10 00:42:17;;;;;;;6.00;3.08;;;;;;;;;;4972610;28;20046;-67
2021/08/10 00:44:42;;;;;;;5.45;2.80;;;;;;;;;;4972532;28;20047;-66
2021/08/10 00:47:07;;;;;;;5.68;2.80;;;;;;;;;;4972291;28;20097;-68
2021/08/10 00:49:32;;;;;;;5.10;2.80;;;;;;;;;;4972600;28;20034;-66
2021/08/10 00:51:57;;;;;;;4.55;3.10;;;;;;;;;;4972461;28;20018;-67
2021/08/10 00:54:24;;;;;;;4.80;2.95;;;;;;;;;;4972559;28;20030;-66
2021/08/10 00:56:51;;;;;;;6.32;2.97;;;;;;;;;;4972243;28;20766;-67
2021/08/10 00:59:16;;;;;;;5.65;3.15;;;;;;;;;;4972003;28;20110;-67
2021/08/10 01:01:41;;;;;;;8.50;3.13;;;;;;;;;;4972214;28;20173;-66
2021/08/10 01:04:06;;;;;;;4.03;2.80;;;;;;;;;;4971856;28;20259;-67
2021/08/10 01:06:44;;;;;;;4.63;2.65;;;;;;;;;;4972202;28;20026;-67
2021/08/10 01:09:11;;;;;;;5.68;2.85;;;;;;;;;;4972167;28;20560;-67
2021/08/10 01:11:36;;;;;;;4.40;2.80;;;;;;;;;;4971982;28;20019;-67
2021/08/10 01:14:22;;;;;;;4.07;3.10;;;;;;;;;;4972009;28;20033;-67
2021/08/10 01:16:53;;;;;;;6.55;2.92;;;;;;;;;;4970967;28;20011;-66
2021/08/10 01:19:18;;;;;;;6.97;3.40;;;;;;;;;;4971887;28;20057;-66
2021/08/10 01:21:45;;;;;;;4.95;3.40;;;;;;;;;;4971586;28;20465;-67
2021/08/10 01:24:22;;;;;;;4.57;3.15;;;;;;;;;;4971560;28;20255;-67
2021/08/10 01:26:51;;;;;;;5.68;3.42;;;;;;;;;;4975568;28;20019;-67
2021/08/10 01:29:22;;;;;;;4.65;2.83;;;;;;;;;;4971612;28;20453;-67
2021/08/10 01:31:48;;;;;;;4.75;2.65;;;;;;;;;;4971412;28;20049;-66
2021/08/10 01:34:15;;;;;;;6.40;2.90;;;;;;;;;;4971667;28;20023;-67
2021/08/10 01:36:42;;;;;;;7.30;3.08;;;;;;;;;;4971539;28;20027;-66
2021/08/10 01:39:07;;;;;;;4.90;3.10;;;;;;;;;;4971430;28;20026;-67
2021/08/10 01:41:32;;;;;;;4.47;2.47;;;;;;;;;;4971260;28;20037;-67
2021/08/10 01:43:59;;;;;;;5.20;2.90;;;;;;;;;;4971267;28;20070;-66
2021/08/10 01:46:25;;;;;;;5.35;3.17;;;;;;;;;;4971497;28;20513;-68
2021/08/10 01:48:51;;;;;;;4.05;2.95;;;;;;;;;;4971342;28;20026;-67
2021/08/10 01:51:16;;;;;;;4.97;2.83;;;;;;;;;;4971157;28;20038;-66
2021/08/10 01:53:41;;;;;;;4.70;3.20;;;;;;;;;;4971427;28;20027;-66
2021/08/10 01:56:07;;;;;;;5.88;3.35;;;;;;;;;;4971972;28;20356;-66
2021/08/10 01:58:34;;;;;;;7.32;3.22;;;;;;;;;;4971475;28;20829;-67
2021/08/10 02:00:59;;;;;;;10.07;3.25;;;;;;;;;;4970736;28;20038;-66
2021/08/10 02:03:26;;;;;;;5.13;3.10;;;;;;;;;;4971137;28;20026;-66
2021/08/10 02:05:51;;;;;;;5.75;2.92;;;;;;;;;;4970730;28;20609;-67
2021/08/10 02:08:18;;;;;;;4.72;2.83;;;;;;;;;;4971122;28;20125;-67
2021/08/10 02:10:44;;;;;;;5.28;2.78;;;;;;;;;;4970596;28;20451;-66
2021/08/10 02:13:10;;;;;;;5.82;3.20;;;;;;;;;;4970744;28;20097;-67
2021/08/10 02:15:38;;;;;;;5.35;3.42;;;;;;;;;;4970903;28;20102;-66
2021/08/10 02:18:03;;;;;;;9.60;3.72;;;;;;;;;;4985346;28;20034;-66
2021/08/10 02:20:29;;;;;;;4.55;3.05;;;;;;;;;;4971160;28;20042;-67
2021/08/10 02:22:54;;;;;;;5.75;3.38;;;;;;;;;;4970895;28;20308;-67
2021/08/10 02:25:21;;;;;;;4.60;3.30;;;;;;;;;;4974275;28;20026;-66
2021/08/10 02:27:55;;;;;;;6.63;3.70;;;;;;;;;;4977250;28;20093;-67
2021/08/10 02:30:21;;;;;;;4.18;3.00;;;;;;;;;;4964785;28;20419;-66
2021/08/10 02:32:47;;;;;;;6.60;3.50;;;;;;;;;;4970903;28;20031;-67
2021/08/10 02:35:15;;;;;;;4.32;2.97;;;;;;;;;;4970820;28;20077;-67
2021/08/10 02:37:42;;;;;;;4.63;3.13;;;;;;;;;;4970600;28;20125;-67
2021/08/10 02:40:09;;;;;;;5.13;2.92;;;;;;;;;;4970221;28;20105;-66
2021/08/10 02:42:34;;;;;;;6.00;2.88;;;;;;;;;;4969875;28;20093;-68
2021/08/10 02:45:01;;;;;;;5.35;3.30;;;;;;;;;;4970320;28;20030;-67
2021/08/10 02:47:27;;;;;;;5.75;3.25;;;;;;;;;;4970532;28;20034;-67
2021/08/10 02:49:52;;;;;;;4.72;3.22;;;;;;;;;;4970340;28;20030;-67
2021/08/10 02:52:18;;;;;;;6.38;3.40;;;;;;;;;;4970479;28;20026;-67
2021/08/10 02:54:43;;;;;;;5.78;3.40;;;;;;;;;;4970241;28;20471;-67
2021/08/10 02:57:16;;;;;;;4.20;3.00;;;;;;;;;;4971396;28;20023;-67
2021/08/10 02:59:46;;;;;;;5.95;3.05;;;;;;;;;;4970044;28;20489;-67
2021/08/10 03:02:16;;;;;;;5.55;3.42;;;;;;;;;;4970291;28;20062;-66
2021/08/10 03:04:46;;;;;;;4.82;3.00;;;;;;;;;;4970269;28;20027;-67
2021/08/10 03:07:11;;;;;;;;;;;;;;;;;;4970729;28;20579;-67
2021/08/10 03:09:36;;;;;;;5.07;3.08;;;;;;;;;;4969984;28;20332;-67
2021/08/10 03:12:03;;;;;;;7.60;3.35;;;;;;;;;;4969806;28;20034;-67
2021/08/10 03:14:29;;;;;;;5.80;3.50;;;;;;;;;;4970190;28;20019;-67
2021/08/10 03:16:54;;;;;;;4.75;3.17;;;;;;;;;;4969861;28;20497;-66
2021/08/10 03:19:20;;;;;;;5.65;2.88;;;;;;;;;;4968631;28;20031;-67
2021/08/10 03:21:45;;;;;;;6.13;3.20;;;;;;;;;;4969894;28;20138;-66
2021/08/10 03:24:11;;;;;;;6.22;3.40;;;;;;;;;;4970196;28;20447;-66
2021/08/10 03:26:39;;;;;;;4.97;3.30;;;;;;;;;;4974696;28;20023;-67
2021/08/10 03:29:04;;;;;;;7.07;3.35;;;;;;;;;;4969904;28;20022;-66
2021/08/10 03:31:29;;;;;;;6.22;3.33;;;;;;;;;;4970048;28;20068;-67
2021/08/10 03:33:55;;;;;;;4.50;3.10;;;;;;;;;;4969863;28;20402;-67
2021/08/10 03:36:23;;;;;;;5.50;3.10;;;;;;;;;;4969761;28;20170;-67
2021/08/10 03:38:50;;;;;;;6.82;3.20;;;;;;;;;;4969580;28;20030;-67
2021/08/10 03:41:16;;;;;;;6.38;3.13;;;;;;;;;;4973208;28;20841;-67
2021/08/10 03:43:42;;;;;;;5.88;3.58;;;;;;;;;;4973444;28;20189;-70
2021/08/10 03:46:08;;;;;;;6.30;3.53;;;;;;;;;;4973698;28;20093;-66
2021/08/10 03:48:35;;;;;;;5.35;3.00;;;;;;;;;;4973783;28;20022;-67
2021/08/10 03:51:00;;;;;;;5.50;3.10;;;;;;;;;;4973335;28;20122;-66
2021/08/10 03:53:26;;;;;;;6.55;3.20;;;;;;;;;;4988628;28;20101;-67
2021/08/10 03:55:52;;;;;;;6.00;2.90;;;;;;;;;;4975035;28;20019;-67
2021/08/10 03:58:17;;;;;;;6.20;2.90;;;;;;;;;;4973169;28;20019;-66
2021/08/10 04:00:42;;;;;;;4.43;2.75;;;;;;;;;;4973331;28;20027;-67
2021/08/10 04:03:09;;;;;;;5.10;3.28;;;;;;;;;;4973675;28;20027;-66
2021/08/10 04:05:39;;;;;;;6.32;3.15;;;;;;;;;;4973257;28;20106;-67
2021/08/10 04:08:04;;;;;;;7.10;3.25;;;;;;;;;;4973285;28;20027;-67
2021/08/10 04:10:29;;;;;;;4.78;2.97;;;;;;;;;;4973423;28;20037;-66
2021/08/10 04:12:54;;;;;;;5.68;3.05;;;;;;;;;;4973258;28;20030;-67
2021/08/10 04:15:20;;;;;;;8.40;3.60;;;;;;;;;;4973380;28;20301;-67
2021/08/10 04:17:47;;;;;;;5.80;3.03;;;;;;;;;;4973196;28;20026;-66
2021/08/10 04:20:13;;;;;;;6.55;3.60;;;;;;;;;;4973069;28;20397;-67
2021/08/10 04:22:39;;;;;;;8.23;3.25;;;;;;;;;;4973052;28;20034;-66
2021/08/10 04:25:05;;;;;;;5.43;3.10;;;;;;;;;;4989440;28;20348;-68
2021/08/10 04:27:30;;;;;;;5.75;3.03;;;;;;;;;;4976003;28;20098;-67
2021/08/10 04:29:55;;;;;;;4.63;3.13;;;;;;;;;;4973047;28;20031;-67
2021/08/10 04:32:20;;;;;;;6.75;3.28;;;;;;;;;;4972927;28;20018;-67
2021/08/10 04:34:45;;;;;;;4.93;3.00;;;;;;;;;;4972896;28;20138;-66
2021/08/10 04:37:10;;;;;;;4.72;2.70;;;;;;;;;;4972421;28;20487;-66
2021/08/10 04:39:36;;;;;;;4.40;3.07;;;;;;;;;;4972855;28;20019;-67
2021/08/10 04:42:01;;;;;;;6.00;3.38;;;;;;;;;;4972281;28;20286;-67
2021/08/10 04:44:26;;;;;;;5.80;2.70;;;;;;;;;;4972268;28;20043;-67
2021/08/10 04:46:51;;;;;;;7.90;2.90;;;;;;;;;;4972833;28;20109;-67
2021/08/10 04:49:17;;;;;;;6.75;3.53;;;;;;;;;;4972756;28;20034;-67
2021/08/10 04:51:42;;;;;;;5.20;3.10;;;;;;;;;;4972409;28;20481;-67
2021/08/10 04:54:07;;;;;;;6.30;3.08;;;;;;;;;;4972509;28;20026;-66
2021/08/10 04:56:32;;;;;;;5.25;3.15;;;;;;;;;;4974735;28;20089;-66
2021/08/10 04:58:57;;;;;;;5.68;3.05;;;;;;;;;;4972377;28;20065;-68
2021/08/10 05:01:23;;;;;;;5.53;2.80;;;;;;;;;;4972642;28;20488;-67
2021/08/10 05:03:48;;;;;;;6.55;3.03;;;;;;;;;;4972630;28;20054;-66
2021/08/10 05:06:13;;;;;;;3.60;2.60;;;;;;;;;;4972269;28;20098;-66
2021/08/10 05:08:38;;;;;;;7.55;3.05;;;;;;;;;;4972201;28;20328;-66
2021/08/10 05:11:07;;;;;;;4.18;2.40;;;;;;;;;;4971923;28;20114;-66
2021/08/10 05:13:33;;;;;;;4.20;2.40;;;;;;;;;;4986452;28;20035;-66
2021/08/10 05:15:58;;;;;;;4.83;2.57;;;;;;;;;;4972227;28;20026;-66
2021/08/10 05:18:23;;;;;;;3.43;2.10;;;;;;;;;;4972223;28;20284;-65
2021/08/10 05:20:48;;;;;;;6.90;2.30;;;;;;;;;;4972126;28;20250;-66
2021/08/10 05:23:13;;;;;;;6.80;1.73;;;;;;;;;;4971821;28;20750;-67
2021/08/10 05:25:38;;;;;;;3.40;1.90;;;;;;;;;;4977881;28;20258;-66
2021/08/10 05:28:04;;;;;;;3.25;1.73;;;;;;;;;;4972111;28;20788;-67
2021/08/10 05:30:29;;;;;;;4.78;1.92;;;;;;;;;;4972025;28;20023;-66
2021/08/10 05:32:54;;;;;;;2.65;1.90;;;;;;;;;;4972372;28;20106;-67
2021/08/10 05:35:19;;;;;;;5.13;2.17;;;;;;;;;;4971754;28;20030;-67
2021/08/10 05:37:44;;;;;;;6.87;2.27;;;;;;;;;;4972205;28;20351;-65
2021/08/10 05:40:10;;;;;;;3.95;2.00;;;;;;;;;;4971520;28;20691;-65
2021/08/10 05:42:35;;;;;;;4.32;1.95;;;;;;;;;;4971050;28;20498;-66
2021/08/10 05:45:00;;;;;;;3.97;2.20;;;;;;;;;;4971483;28;20888;-66
2021/08/10 05:47:25;;;;;;;4.33;2.10;;;;;;;;;;4971562;28;20027;-66
2021/08/10 05:49:50;;;;;;;3.20;2.05;;;;;;;;;;4971082;28;20393;-66
2021/08/10 05:52:16;;;;;;;4.27;2.07;;;;;;;;;;4971315;28;20145;-67
2021/08/10 05:54:41;;;;;;;4.22;1.98;;;;;;;;;;4971289;28;20258;-67
2021/08/10 05:57:06;;;;;;;5.83;2.37;;;;;;;;;;4973783;28;20816;-66
2021/08/10 05:59:31;;;;;;;4.45;1.60;;;;;;;;;;4971053;28;20258;-66
2021/08/10 06:01:59;;;;;;;4.43;2.05;;;;;;;;;;4970466;28;20466;-66
2021/08/10 06:04:25;;;;;;;3.88;2.17;;;;;;;;;;4970948;28;20211;-66
2021/08/10 06:06:50;;;;;;;4.28;1.80;;;;;;;;;;4971018;28;20034;-66
2021/08/10 06:09:15;;;;;;;3.40;1.83;;;;;;;;;;4970732;28;20070;-67
2021/08/10 06:11:41;;;;;;;2.80;1.77;;;;;;;;;;4971166;28;20027;-66
2021/08/10 06:14:06;;;;;;;3.83;1.65;;;;;;;;;;4970914;28;20485;-66
2021/08/10 06:16:32;;;;;;;3.30;1.70;;;;;;;;;;4971046;28;20501;-65
2021/08/10 06:18:58;;;;;;;5.25;2.00;;;;;;;;;;4971060;28;20106;-67
2021/08/10 06:21:23;;;;;;;2.90;1.90;;;;;;;;;;4970751;28;20149;-65
2021/08/10 06:23:48;;;;;;;3.17;1.80;;;;;;;;;;4971085;28;20258;-65
2021/08/10 06:26:13;;;;;;;2.40;1.60;;;;;;;;;;4976913;28;20825;-66
2021/08/10 06:28:39;;;;;;;2.97;1.90;;;;;;;;;;4970889;28;20027;-66
2021/08/10 06:31:04;;;;;;;3.55;1.90;;;;;;;;;;4970207;28;20270;-66
2021/08/10 06:33:29;;;;;;;4.30;1.60;;;;;;;;;;4970849;28;20027;-66
2021/08/10 06:35:55;;;;;;;2.55;1.85;;;;;;;;;;4970532;28;20034;-66
2021/08/10 06:38:20;;;;;;;2.92;1.77;;;;;;;;;;4970890;28;20451;-66
2021/08/10 06:40:45;;;;;;;3.03;1.90;;;;;;;;;;4970290;28;20043;-67
2021/08/10 06:43:10;;;;;;;3.33;1.92;;;;;;;;;;4970249;28;20394;-66
2021/08/10 06:45:36;;;;;;;3.40;1.70;;;;;;;;;;4970429;28;20065;-66
2021/08/10 06:48:01;;;;;;;5.28;1.90;;;;;;;;;;4970669;28;20525;-66
2021/08/10 06:50:26;;;;;;;3.78;1.90;;;;;;;;;;4970515;28;20370;-66
2021/08/10 06:52:52;;;;;;;3.28;1.92;;;;;;;;;;4970367;28;20018;-67
2021/08/10 06:55:17;;;;;;;4.53;1.92;;;;;;;;;;4973255;28;20026;-66
2021/08/10 06:57:43;;;;;;;2.70;1.73;;;;;;;;;;4970915;28;20026;-66
2021/08/10 07:00:08;;;;;;;3.30;1.95;;;;;;;;;;4970230;28;20019;-66
2021/08/10 07:02:33;;;;;;;5.40;2.22;;;;;;;;;;4970272;28;20042;-66
2021/08/10 07:04:59;;;;;;;5.13;2.15;;;;;;;;;;4970248;28;20077;-66
2021/08/10 07:07:24;;;;;;;5.28;2.03;;;;;;;;;;4970753;28;20025;-67
2021/08/10 07:09:49;;;;;;;4.17;2.03;;;;;;;;;;4970358;28;20022;-66
2021/08/10 07:12:14;;;;;;;3.87;1.80;;;;;;;;;;4969957;28;20344;-66
2021/08/10 07:14:40;;;;;;;2.63;1.83;;;;;;;;;;4969157;28;20254;-66
2021/08/10 07:17:05;;;;;;;4.53;1.90;;;;;;;;;;4969923;28;20033;-65
2021/08/10 07:19:30;;;;;;;7.05;2.10;;;;;;;;;;4970223;28;20771;-67
2021/08/10 07:21:55;;;;;;;11.77;2.70;;;;;;;;;;4967547;28;20629;-67
2021/08/10 07:24:20;;;;;;;6.65;2.35;;;;;;;;;;4970780;28;20265;-67
2021/08/10 07:26:46;;;;;;;7.57;2.60;;;;;;;;;;4970085;28;20034;-67
2021/08/10 07:29:11;;;;;;;4.40;1.90;;;;;;;;;;4970138;28;20041;-66
2021/08/10 07:31:36;;;;;;;4.37;2.23;;;;;;;;;;4969848;28;20022;-66
2021/08/10 07:34:01;;;;;;;4.35;2.28;;;;;;;;;;4970061;28;20363;-66
2021/08/10 07:36:27;;;;;;;5.32;2.00;;;;;;;;;;4970136;28;20027;-66
2021/08/10 07:38:52;;;;;;;5.50;2.58;;;;;;;;;;4969848;28;20069;-66
2021/08/10 07:41:17;;;;;;;4.20;2.10;;;;;;;;;;4963101;28;20148;-67
2021/08/10 07:43:42;;;;;;;3.63;2.10;;;;;;;;;;4969804;28;20102;-66
2021/08/10 07:46:07;;;;;;;4.63;2.38;;;;;;;;;;4969013;28;20497;-66
2021/08/10 07:48:33;;;;;;;5.73;1.90;;;;;;;;;;4970077;28;20026;-66
2021/08/10 07:51:00;;;;;;;3.83;1.90;;;;;;;;;;4970022;28;20290;-66
2021/08/10 07:53:25;;;;;;;4.90;2.30;;;;;;;;;;4970023;28;20023;-66
2021/08/10 07:55:50;;;;;;;5.13;2.17;;;;;;;;;;4973717;28;20019;-66
2021/08/10 07:58:16;;;;;;;4.55;2.17;;;;;;;;;;4970025;28;20697;-66
2021/08/10 08:00:41;;;;;;;3.90;2.15;;;;;;;;;;4966971;28;20023;-66
2021/08/10 08:03:07;;;;;;;7.80;2.00;;;;;;;;;;4969980;28;20062;-67
2021/08/10 08:05:32;;;;;;;3.65;1.65;;;;;;;;;;4969567;28;20403;-67
2021/08/10 08:07:57;;;;;;;3.83;2.28;;;;;;;;;;4970017;28;20050;-66
2021/08/10 08:10:23;;;;;;;4.07;2.03;;;;;;;;;;4969886;28;20046;-66
2021/08/10 08:12:48;;;;;;;3.80;2.13;;;;;;;;;;4969652;28;20637;-66
2021/08/10 08:15:13;;;;;;;4.63;2.10;;;;;;;;;;4969571;28;20023;-67
2021/08/10 08:17:38;;;;;;;5.88;1.90;;;;;;;;;;4969890;28;20266;-66
2021/08/10 08:20:04;;;;;;;3.20;2.10;;;;;;;;;;4969568;28;20100;-67
2021/08/10 08:22:29;;;;;;;5.28;2.30;;;;;;;;;;4969691;28;20298;-67
2021/08/10 08:24:54;;;;;;;2.90;1.97;;;;;;;;;;4970183;28;20596;-67
2021/08/10 08:27:19;;;;;;;5.83;1.90;;;;;;;;;;4973065;28;20361;-66
2021/08/10 08:29:44;;;;;;;4.73;2.00;;;;;;;;;;4973307;28;20262;-66
2021/08/10 08:32:10;;;;;;;5.27;1.87;;;;;;;;;;4973016;28;20325;-65
2021/08/10 08:34:35;;;;;;;3.55;2.17;;;;;;;;;;4973267;28;20296;-66
2021/08/10 08:37:01;;;;;;;3.40;1.92;;;;;;;;;;4972610;28;20026;-66
2021/08/10 08:39:26;;;;;;;6.90;2.22;;;;;;;;;;4973177;28;20098;-66
2021/08/10 08:41:51;;;;;;;4.30;2.28;;;;;;;;;;4972699;28;20034;-66
2021/08/10 08:44:17;;;;;;;3.45;1.70;;;;;;;;;;4971328;28;20046;-67
2021/08/10 08:46:43;;;;;;;6.53;2.13;;;;;;;;;;4972721;28;20031;-66
2021/08/10 08:49:09;;;;;;;5.55;2.70;;;;;;;;;;4972630;28;20057;-66
2021/08/10 08:51:34;;;;;;;5.88;2.03;;;;;;;;;;4972533;28;20431;-66
2021/08/10 08:54:00;;;;;;;3.25;1.65;;;;;;;;;;4972881;28;20096;-66
2021/08/10 08:56:26;;;;;;;4.50;1.70;;;;;;;;;;4972161;28;20033;-66
2021/08/10 08:58:52;;;;;;;3.35;2.30;;;;;;;;;;4972414;28;20030;-66
2021/08/10 09:01:18;;;;;;;3.67;2.00;;;;;;;;;;4972458;28;20035;-66
2021/08/10 09:03:43;;;;;;;6.68;2.00;;;;;;;;;;4972416;28;20078;-66
2021/08/10 09:06:08;;;;;;;3.75;1.80;;;;;;;;;;4972306;28;20081;-66
2021/08/10 09:08:34;;;;;;;5.25;2.08;;;;;;;;;;4972556;28;20022;-66
2021/08/10 09:11:04;;;;;;;4.32;2.00;;;;;;;;;;4959362;28;20030;-67
2021/08/10 09:13:29;;;;;;;5.90;2.28;;;;;;;;;;4965881;28;20282;-66
2021/08/10 09:15:58;;;;;;;3.67;1.65;;;;;;;;;;4972280;28;20105;-66
2021/08/10 09:18:23;;;;;;;3.50;1.70;;;;;;;;;;4972526;28;20026;-67
2021/08/10 09:20:58;;;;;;;4.13;2.13;;;;;;;;;;4971930;28;20030;-67
2021/08/10 09:23:56;;;;;;;5.32;1.95;;;;;;;;;;4966198;28;20381;-66
2021/08/10 09:26:22;;;;;;;4.15;2.05;;;;;;;;;;4963252;28;20431;-66
2021/08/10 09:28:49;;;;;;;3.67;1.90;;;;;;;;;;4960287;28;20355;-66
2021/08/10 09:31:34;;;;;;;4.25;1.90;;;;;;;;;;4969087;28;20500;-66
2021/08/10 09:34:00;;;;;;;4.43;2.20;;;;;;;;;;4962801;28;20022;-66
2021/08/10 09:36:26;;;;;;;4.43;2.08;;;;;;;;;;4950224;28;20078;-66
2021/08/10 09:38:52;;;;;;;4.70;2.30;;;;;;;;;;4949978;28;20031;-65
2021/08/10 09:41:17;;;;;;;5.03;1.90;;;;;;;;;;4950251;28;20113;-66
2021/08/10 09:43:42;;;;;;;5.00;2.30;;;;;;;;;;4954625;28;20043;-66
2021/08/10 09:46:15;;;;;;;3.53;2.05;;;;;;;;;;4968427;28;20828;-67
2021/08/10 09:48:42;;;;;;;4.03;2.15;;;;;;;;;;4962262;28;20073;-66
2021/08/10 09:51:11;;;;;;;4.88;2.40;;;;;;;;;;4964188;28;20030;-66
2021/08/10 09:53:37;;;;;;;4.18;2.00;;;;;;;;;;4967381;28;20026;-66
2021/08/10 09:56:02;;;;;;;4.50;2.45;;;;;;;;;;4955637;28;20085;-65
2021/08/10 09:58:28;;;;;;;3.17;2.00;;;;;;;;;;4964310;28;20037;-66
2021/08/10 10:00:59;;;;;;;4.70;2.03;;;;;;;;;;4949886;28;20031;-66
2021/08/10 10:03:26;;;;;;;5.50;2.20;;;;;;;;;;4969745;28;20403;-67
2021/08/10 10:05:51;;;;;;;4.18;2.00;;;;;;;;;;4971584;28;20019;-66
2021/08/10 10:08:18;;;;;;;4.68;2.00;;;;;;;;;;4970852;28;20534;-66
2021/08/10 10:10:44;;;;;;;4.40;2.15;;;;;;;;;;4971360;28;20110;-66
2021/08/10 10:13:09;;;;;;;3.78;2.00;;;;;;;;;;4971124;28;20142;-66
2021/08/10 10:15:34;;;;;;;3.97;2.10;;;;;;;;;;4970820;28;20491;-66
2021/08/10 10:18:00;;;;;;;3.80;2.10;;;;;;;;;;4970717;28;20431;-67
2021/08/10 10:20:25;;;;;;;3.20;2.20;;;;;;;;;;4971005;28;20019;-67
2021/08/10 10:22:51;;;;;;;4.37;2.00;;;;;;;;;;4970655;28;20117;-67
2021/08/10 10:25:16;;;;;;;4.00;2.50;;;;;;;;;;4973085;28;20276;-66
2021/08/10 10:27:41;;;;;;;4.00;1.90;;;;;;;;;;4970944;28;20023;-65
2021/08/10 10:30:07;;;;;;;3.95;1.95;;;;;;;;;;4970880;28;20121;-66
2021/08/10 10:32:32;;;;;;;4.03;2.20;;;;;;;;;;4970770;28;20388;-66
2021/08/10 10:34:57;;;;;;;3.53;1.95;;;;;;;;;;4970830;28;20030;-66
2021/08/10 10:37:26;;;;;;;3.33;1.67;;;;;;;;;;4970634;28;20030;-67
2021/08/10 10:40:00;;;;;;;3.72;1.98;;;;;;;;;;4970524;28;20254;-66
2021/08/10 10:42:25;;;;;;;4.57;2.03;;;;;;;;;;4970395;28;20247;-67
2021/08/10 10:44:51;;;;;;;5.05;2.40;;;;;;;;;;4970411;28;20458;-66
2021/08/10 10:47:23;;;;;;;3.75;2.10;;;;;;;;;;4970590;28;20157;-66
2021/08/10 10:50:08;;;;;;;3.63;2.17;;;;;;;;;;4964087;28;20041;-66
2021/08/10 10:52:34;;;;;;;4.22;2.40;;;;;;;;;;4966391;28;20121;-67
2021/08/10 10:55:00;;;;;;;4.10;1.80;;;;;;;;;;4971732;28;20113;-66
2021/08/10 10:57:28;;;;;;;4.13;1.88;;;;;;;;;;4974951;28;20574;-66
2021/08/10 10:59:53;;;;;;;4.32;2.10;;;;;;;;;;4970714;28;20077;-67
2021/08/10 11:02:21;;;;;;;3.65;2.00;;;;;;;;;;4970077;28;20664;-66
2021/08/10 11:05:05;;;;;;;3.83;2.03;;;;;;;;;;4970767;28;20430;-65
2021/08/10 11:07:33;;;;;;;5.70;2.03;;;;;;;;;;4970415;28;20025;-66
2021/08/10 11:09:59;;;;;;;6.82;2.50;;;;;;;;;;4970254;28;20034;-65
2021/08/10 11:12:30;;;;;;;3.88;2.17;;;;;;;;;;4970667;28;20027;-66
2021/08/10 11:14:55;;;;;;;3.25;2.08;;;;;;;;;;4969107;28;20023;-66
2021/08/10 11:17:20;;;;;;;3.85;2.28;;;;;;;;;;4970252;28;20027;-67
2021/08/10 11:19:47;;;;;;;4.47;2.20;;;;;;;;;;4970040;28;20023;-66
2021/08/10 11:22:15;;;;;;;7.75;2.30;;;;;;;;;;4969845;28;20403;-66
2021/08/10 11:24:41;;;;;;;3.88;2.10;;;;;;;;;;4969967;28;20015;-65
2021/08/10 11:27:29;;;;;;;3.55;2.10;;;;;;;;;;4972353;28;20510;-67
2021/08/10 11:29:54;;;;;;;6.22;2.55;;;;;;;;;;4971547;28;20347;-67
2021/08/10 11:32:38;;;;;;;6.27;2.20;;;;;;;;;;4969696;28;20113;-66
2021/08/10 11:35:23;;;;;;;4.00;2.03;;;;;;;;;;4969777;28;20333;-66
2021/08/10 11:38:03;;;;;;;3.50;2.15;;;;;;;;;;4965625;28;20101;-66
2021/08/10 11:40:36;;;;;;;3.13;2.20;;;;;;;;;;4969460;28;20029;-65
2021/08/10 11:43:01;;;;;;;5.05;2.20;;;;;;;;;;4968959;28;20046;-65
2021/08/10 11:45:34;;;;;;;3.92;2.08;;;;;;;;;;4969882;28;20157;-66
2021/08/10 11:48:00;;;;;;;3.80;2.30;;;;;;;;;;4969923;28;20026;-66
2021/08/10 11:50:26;;;;;;;4.82;2.45;;;;;;;;;;4969279;28;20422;-67
2021/08/10 11:52:52;;;;;;;4.00;2.20;;;;;;;;;;4970094;28;20097;-66
2021/08/10 11:55:18;;;;;;;5.38;1.80;;;;;;;;;;4973576;28;20414;-66
2021/08/10 11:57:53;;;;;;;2.90;2.00;;;;;;;;;;4971918;28;20033;-66
2021/08/10 12:00:20;;;;;;;9.30;2.10;;;;;;;;;;4969925;28;20026;-66
2021/08/10 12:02:46;;;;;;;5.72;2.30;;;;;;;;;;4973547;28;20097;-66
2021/08/10 12:05:12;;;;;;;4.22;2.08;;;;;;;;;;4973497;28;20026;-66
2021/08/10 12:07:46;;;;;;;3.72;1.75;;;;;;;;;;4973288;28;20089;-66
2021/08/10 12:10:11;;;;;;;6.78;2.20;;;;;;;;;;4973412;28;20137;-65
2021/08/10 12:12:36;;;;;;;4.40;2.42;;;;;;;;;;4973227;28;20066;-65
2021/08/10 12:15:01;;;;;;;4.17;2.07;;;;;;;;;;4973486;28;20074;-66
2021/08/10 12:17:26;;;;;;;5.60;2.20;;;;;;;;;;4973307;28;20349;-66
2021/08/10 12:19:52;;;;;;;3.80;1.90;;;;;;;;;;4973480;28;20742;-67
2021/08/10 12:22:18;;;;;;;6.20;1.97;;;;;;;;;;4973130;28;20574;-66
2021/08/10 12:24:44;;;;;;;3.17;2.00;;;;;;;;;;4973209;28;20019;-66
2021/08/10 12:27:11;;;;;;;4.65;2.50;;;;;;;;;;4973194;28;20498;-67
2021/08/10 12:29:37;;;;;;;7.18;2.25;;;;;;;;;;4973205;28;20077;-66
2021/08/10 12:32:06;;;;;;;3.33;1.80;;;;;;;;;;4973287;28;20093;-66
2021/08/10 12:34:32;;;;;;;5.30;2.70;;;;;;;;;;4973165;28;20046;-66
2021/08/10 12:36:58;;;;;;;6.95;2.10;;;;;;;;;;4972915;28;20390;-66
2021/08/10 12:39:23;;;;;;;3.90;2.22;;;;;;;;;;4973308;28;20019;-67
2021/08/10 12:41:49;;;;;;;3.80;2.30;;;;;;;;;;4972968;28;20840;-66
2021/08/10 12:44:14;;;;;;;3.10;2.28;;;;;;;;;;4972607;28;20079;-66
2021/08/10 12:46:40;;;;;;;4.35;2.50;;;;;;;;;;4972756;28;20031;-66
2021/08/10 12:49:11;;;;;;;3.35;2.20;;;;;;;;;;4966514;28;20058;-66
2021/08/10 12:51:54;;;;;;;3.65;2.30;;;;;;;;;;4973022;28;20022;-66
2021/08/10 12:54:20;;;;;;;6.30;2.40;;;;;;;;;;4968404;28;20474;-66
2021/08/10 12:56:46;;;;;;;3.20;2.17;;;;;;;;;;4972571;28;20061;-67
2021/08/10 12:59:11;;;;;;;3.17;1.73;;;;;;;;;;4972312;28;20077;-65
2021/08/10 13:01:43;;;;;;;4.90;2.03;;;;;;;;;;4972585;28;20389;-67
2021/08/10 13:04:09;;;;;;;5.68;2.50;;;;;;;;;;4972324;28;20423;-66
2021/08/10 13:06:35;;;;;;;3.42;1.83;;;;;;;;;;4972572;28;20093;-67
2021/08/10 13:09:00;;;;;;;3.08;1.90;;;;;;;;;;4972437;28;20026;-66
2021/08/10 13:11:26;;;;;;;4.13;2.20;;;;;;;;;;4971653;28;20019;-68
2021/08/10 13:13:52;;;;;;;4.15;2.00;;;;;;;;;;4971821;28;20075;-67
2021/08/10 13:16:37;;;;;;;4.25;1.85;;;;;;;;;;4972257;28;20025;-66
2021/08/10 13:19:09;;;;;;;3.67;2.15;;;;;;;;;;4968445;28;20101;-67
2021/08/10 13:21:50;;;;;;;3.92;1.95;;;;;;;;;;4971984;28;20355;-66
2021/08/10 13:24:18;;;;;;;6.13;2.30;;;;;;;;;;4971972;28;20147;-65
2021/08/10 13:26:44;;;;;;;7.25;2.40;;;;;;;;;;4976105;28;20033;-66
2021/08/10 13:29:09;;;;;;;4.10;1.88;;;;;;;;;;4972014;28;20106;-66
2021/08/10 13:31:45;;;;;;;4.35;2.17;;;;;;;;;;4972007;28;20568;-66
2021/08/10 13:34:10;;;;;;;3.30;2.13;;;;;;;;;;4971958;28;20050;-66
2021/08/10 13:36:36;;;;;;;3.40;2.05;;;;;;;;;;4971997;28;20062;-66
2021/08/10 13:39:02;;;;;;;5.20;2.57;;;;;;;;;;4971592;28;20026;-67
2021/08/10 13:41:28;;;;;;;3.58;2.20;;;;;;;;;;4971782;28;20290;-66
2021/08/10 13:43:56;;;;;;;5.85;2.40;;;;;;;;;;4971289;28;20567;-67
2021/08/10 13:46:26;;;;;;;5.57;2.38;;;;;;;;;;4971420;28;20122;-66
2021/08/10 13:48:51;;;;;;;4.53;2.00;;;;;;;;;;4971902;28;20039;-67
2021/08/10 13:51:17;;;;;;;6.97;2.30;;;;;;;;;;4971781;28;20360;-66
2021/08/10 13:53:42;;;;;;;5.27;2.63;;;;;;;;;;4970397;28;20030;-67
2021/08/10 13:56:07;;;;;;;5.85;2.05;;;;;;;;;;4971741;28;20325;-66
2021/08/10 13:58:33;;;;;;;3.80;2.00;;;;;;;;;;4971566;28;20589;-66
2021/08/10 14:00:59;;;;;;;4.57;2.10;;;;;;;;;;4971414;28;20031;-66
2021/08/10 14:03:24;;;;;;;4.45;2.10;;;;;;;;;;4971320;28;20046;-66
2021/08/10 14:05:49;;;;;;;4.97;2.60;;;;;;;;;;4971308;28;20419;-66
2021/08/10 14:08:15;;;;;;;3.90;2.50;;;;;;;;;;4971201;28;20310;-66
2021/08/10 14:10:40;;;;;;;6.03;2.47;;;;;;;;;;4971156;28;20259;-66
2021/08/10 14:13:05;;;;;;;4.05;2.00;;;;;;;;;;4970753;28;20058;-69
2021/08/10 14:15:30;;;;;;;3.27;2.00;;;;;;;;;;4971234;28;20081;-66
2021/08/10 14:17:55;;;;;;;3.65;2.15;;;;;;;;;;4971019;28;20393;-68
2021/08/10 14:20:21;;;;;;;5.10;2.20;;;;;;;;;;4971425;28;20143;-66
2021/08/10 14:22:46;;;;;;;5.80;2.70;;;;;;;;;;4970715;28;20646;-66
2021/08/10 14:25:11;;;;;;;8.20;2.40;;;;;;;;;;4973267;28;20250;-67
2021/08/10 14:27:36;;;;;;;7.70;2.30;;;;;;;;;;4972543;28;20304;-66
2021/08/10 14:30:03;;;;;;;5.57;1.98;;;;;;;;;;4970910;28;20019;-65
2021/08/10 14:32:28;;;;;;;5.70;2.58;;;;;;;;;;4970928;28;20418;-67
2021/08/10 14:34:53;;;;;;;4.60;2.17;;;;;;;;;;4970641;28;20077;-66
2021/08/10 14:37:18;;;;;;;2.60;2.13;;;;;;;;;;4970304;28;20266;-65
2021/08/10 14:39:43;;;;;;;4.97;2.43;;;;;;;;;;4970822;28;20261;-66